sensor_id;sensor_type;location;lat;lon;timestamp;pressure;altitude;pressure_sealevel;temperature;humidity
46886;BME280;32622;48.202;11.326;2023-04-15T12:44:18;1009.57;;;7.54;22.29
46886;BME280;32622;48.202;11.326;2023-04-15T12:46:22;1009.59;;;7.56;22.11
46886;BME280;32622;48.202;11.326;2023-04-15T12:48:25;1009.63;;;7.49;21.90
46886;BME280;32622;48.202;11.326;2023-04-15T12:50:29;1009.64;;;7.71;21.24
46886;BME280;32622;48.202;11.326;2023-04-15T12:52:44;1009.57;;;7.82;21.30
46886;BME280;32622;48.202;11.326;2023-04-15T12:54:47;1009.55;;;8.20;21.60
46886;BME280;32622;48.202;11.326;2023-04-15T12:56:50;1009.58;;;8.04;21.45
46886;BME280;32622;48.202;11.326;2023-04-15T12:58:53;1009.73;;;7.58;21.86
46886;BME280;32622;48.202;11.326;2023-04-15T13:00:56;1009.57;;;8.33;21.66
46886;BME280;32622;48.202;11.326;2023-04-15T13:03:03;1009.53;;;8.63;21.64
46886;BME280;32622;48.202;11.326;2023-04-15T13:05:07;1009.95;;;7.20;22.10
46886;BME280;32622;48.202;11.326;2023-04-15T13:07:10;1009.90;;;7.61;22.51
46886;BME280;32622;48.202;11.326;2023-04-15T13:09:12;1009.96;;;7.45;22.47
46886;BME280;32622;48.202;11.326;2023-04-15T13:11:15;1010.12;;;6.95;22.88
46886;BME280;32622;48.202;11.326;2023-04-15T13:13:19;1010.03;;;7.10;22.80
46886;BME280;32622;48.202;11.326;2023-04-15T13:15:22;1009.97;;;7.52;22.61
46886;BME280;32622;48.202;11.326;2023-04-15T13:17:25;1009.90;;;7.72;22.58
46886;BME280;32622;48.202;11.326;2023-04-15T13:19:28;1010.11;;;7.23;22.90
46886;BME280;32622;48.202;11.326;2023-04-15T13:21:31;1010.30;;;6.46;23.46
46886;BME280;32622;48.202;11.326;2023-04-15T13:23:34;1010.30;;;6.71;23.79
46886;BME280;32622;48.202;11.326;2023-04-15T13:25:37;1010.22;;;7.38;23.53
46886;BME280;32622;48.202;11.326;2023-04-15T13:27:41;1010.24;;;7.27;23.38
46886;BME280;32622;48.202;11.326;2023-04-15T13:29:45;1010.26;;;7.26;23.70
46886;BME280;32622;48.202;11.326;2023-04-15T13:31:48;1010.32;;;7.19;23.21
46886;BME280;32622;48.202;11.326;2023-04-15T13:33:51;1010.35;;;6.84;23.16
46886;BME280;32622;48.202;11.326;2023-04-15T13:35:54;1010.17;;;7.62;23.27
46886;BME280;32622;48.202;11.326;2023-04-15T13:37:57;1010.14;;;7.86;23.38
46886;BME280;32622;48.202;11.326;2023-04-15T13:40:00;1010.34;;;7.05;23.64
46886;BME280;32622;48.202;11.326;2023-04-15T13:42:03;1010.24;;;7.37;22.81
46886;BME280;32622;48.202;11.326;2023-04-15T13:44:06;1010.08;;;8.12;22.59
46886;BME280;32622;48.202;11.326;2023-04-15T13:49:37;1010.30;;;7.87;23.72
46886;BME280;32622;48.202;11.326;2023-04-15T13:51:41;1010.45;;;7.23;23.88
46886;BME280;32622;48.202;11.326;2023-04-15T13:53:45;1010.38;;;7.32;22.95
46886;BME280;32622;48.202;11.326;2023-04-15T13:58:59;1010.44;;;7.14;23.60
46886;BME280;32622;48.202;11.326;2023-04-15T14:01:02;1010.52;;;7.01;23.97
46886;BME280;32622;48.202;11.326;2023-04-15T14:03:05;1010.46;;;7.38;24.07
46886;BME280;32622;48.202;11.326;2023-04-15T14:05:10;1010.45;;;7.35;23.07
46886;BME280;32622;48.202;11.326;2023-04-15T14:07:18;1010.40;;;7.60;22.79
46886;BME280;32622;48.202;11.326;2023-04-15T14:09:24;1010.36;;;7.74;22.94
46886;BME280;32622;48.202;11.326;2023-04-15T14:11:27;1010.40;;;7.65;23.26
46886;BME280;32622;48.202;11.326;2023-04-15T14:13:30;1010.33;;;7.84;23.13
46886;BME280;32622;48.202;11.326;2023-04-15T14:15:34;1010.48;;;7.22;23.40
46886;BME280;32622;48.202;11.326;2023-04-15T14:17:38;1010.22;;;8.45;22.49
46886;BME280;32622;48.202;11.326;2023-04-15T14:25:13;1010.34;;;8.54;23.29
46886;BME280;32622;48.202;11.326;2023-04-15T14:27:21;1010.58;;;7.58;22.65
46886;BME280;32622;48.202;11.326;2023-04-15T14:31:27;1010.85;;;6.81;22.55
46886;BME280;32622;48.202;11.326;2023-04-15T14:39:47;1010.37;;;10.15;24.14
46886;BME280;32622;48.202;11.326;2023-04-15T14:41:51;1011.11;;;7.16;24.12
46886;BME280;32622;48.202;11.326;2023-04-15T14:43:55;1011.14;;;7.32;23.98
46886;BME280;32622;48.202;11.326;2023-04-15T14:45:58;1011.27;;;6.86;24.06
46886;BME280;32622;48.202;11.326;2023-04-15T14:48:01;1011.27;;;7.20;23.82
46886;BME280;32622;48.202;11.326;2023-04-15T14:50:08;1011.36;;;6.96;24.64
46886;BME280;32622;48.202;11.326;2023-04-15T14:52:11;1011.92;;;4.79;26.80
46886;BME280;32622;48.202;11.326;2023-04-15T14:54:14;1011.42;;;7.03;25.71
46886;BME280;32622;48.202;11.326;2023-04-15T14:56:18;1011.77;;;5.80;26.40
46886;BME280;32622;48.202;11.326;2023-04-15T14:58:21;1012.02;;;5.03;27.49
46886;BME280;32622;48.202;11.326;2023-04-15T15:00:39;1012.03;;;5.11;28.18
46886;BME280;32622;48.202;11.326;2023-04-15T15:02:41;1012.00;;;5.70;27.75
46886;BME280;32622;48.202;11.326;2023-04-15T15:04:45;1012.00;;;5.69;28.82
46886;BME280;32622;48.202;11.326;2023-04-15T15:06:48;1012.20;;;5.19;29.08
46886;BME280;32622;48.202;11.326;2023-04-15T15:08:51;1012.10;;;5.78;28.95
46886;BME280;32622;48.202;11.326;2023-04-15T15:10:53;1012.26;;;5.19;29.36
46886;BME280;32622;48.202;11.326;2023-04-15T15:12:56;1012.18;;;5.72;29.22
46886;BME280;32622;48.202;11.326;2023-04-15T15:15:01;1012.09;;;6.23;28.66
46886;BME280;32622;48.202;11.326;2023-04-15T15:17:05;1012.03;;;6.51;28.35
46886;BME280;32622;48.202;11.326;2023-04-15T15:19:08;1012.00;;;6.72;27.79
46886;BME280;32622;48.202;11.326;2023-04-15T15:21:11;1012.11;;;6.40;27.74
46886;BME280;32622;48.202;11.326;2023-04-15T15:23:15;1012.11;;;6.42;28.16
46886;BME280;32622;48.202;11.326;2023-04-15T15:25:18;1012.14;;;6.42;27.99
46886;BME280;32622;48.202;11.326;2023-04-15T15:27:21;1012.15;;;6.48;27.69
46886;BME280;32622;48.202;11.326;2023-04-15T15:29:25;1012.13;;;6.80;27.52
46886;BME280;32622;48.202;11.326;2023-04-15T15:31:27;1012.34;;;5.91;28.02
46886;BME280;32622;48.202;11.326;2023-04-15T15:33:33;1012.32;;;6.33;27.19
46886;BME280;32622;48.202;11.326;2023-04-15T15:35:38;1012.22;;;6.68;27.24
46886;BME280;32622;48.202;11.326;2023-04-15T15:37:42;1012.42;;;5.93;27.81
46886;BME280;32622;48.202;11.326;2023-04-15T15:39:48;1012.34;;;6.34;27.42
46886;BME280;32622;48.202;11.326;2023-04-15T15:41:54;1012.36;;;6.26;27.43
46886;BME280;32622;48.202;11.326;2023-04-15T15:43:59;1012.42;;;6.08;27.41
46886;BME280;32622;48.202;11.326;2023-04-15T15:46:13;1012.30;;;6.50;27.57
46886;BME280;32622;48.202;11.326;2023-04-15T15:49:59;1011.24;;;11.14;27.76
46886;BME280;32622;48.202;11.326;2023-04-15T15:52:02;1011.81;;;8.65;28.59
46886;BME280;32622;48.202;11.326;2023-04-15T15:54:05;1011.95;;;8.20;29.06
46886;BME280;32622;48.202;11.326;2023-04-15T15:56:08;1011.85;;;8.70;29.16
46886;BME280;32622;48.202;11.326;2023-04-15T15:58:11;1011.84;;;9.09;29.34
46886;BME280;32622;48.202;11.326;2023-04-15T16:00:15;1011.83;;;9.08;29.14
46886;BME280;32622;48.202;11.326;2023-04-15T16:02:18;1011.84;;;9.07;29.46
46886;BME280;32622;48.202;11.326;2023-04-15T16:04:22;1011.91;;;8.96;29.39
46886;BME280;32622;48.202;11.326;2023-04-15T16:06:26;1011.91;;;9.03;29.36
46886;BME280;32622;48.202;11.326;2023-04-15T16:08:39;1012.01;;;8.62;29.65
46886;BME280;32622;48.202;11.326;2023-04-15T16:10:45;1012.73;;;5.52;29.14
46886;BME280;32622;48.202;11.326;2023-04-15T16:12:49;1012.50;;;6.45;28.26
46886;BME280;32622;48.202;11.326;2023-04-15T16:14:52;1012.49;;;6.61;27.43
46886;BME280;32622;48.202;11.326;2023-04-15T16:16:56;1012.55;;;6.51;27.03
46886;BME280;32622;48.202;11.326;2023-04-15T16:21:02;1012.32;;;7.87;28.82
46886;BME280;32622;48.202;11.326;2023-04-15T16:23:12;1012.85;;;5.71;28.20
46886;BME280;32622;48.202;11.326;2023-04-15T16:25:16;1012.93;;;5.50;28.74
46886;BME280;32622;48.202;11.326;2023-04-15T16:27:21;1012.64;;;6.57;27.30
46886;BME280;32622;48.202;11.326;2023-04-15T16:29:27;1012.66;;;6.62;26.94
46886;BME280;32622;48.202;11.326;2023-04-15T16:31:31;1012.84;;;6.24;26.84
46886;BME280;32622;48.202;11.326;2023-04-15T16:33:43;1012.89;;;6.03;26.71
46886;BME280;32622;48.202;11.326;2023-04-15T16:35:46;1012.64;;;7.23;26.55
46886;BME280;32622;48.202;11.326;2023-04-15T16:37:59;1012.87;;;6.40;26.50
46886;BME280;32622;48.202;11.326;2023-04-15T16:40:03;1012.78;;;6.88;26.39
46886;BME280;32622;48.202;11.326;2023-04-15T16:45:34;1012.63;;;7.87;26.92
46886;BME280;32622;48.202;11.326;2023-04-15T16:47:37;1012.88;;;7.01;27.16
46886;BME280;32622;48.202;11.326;2023-04-15T16:49:50;1013.00;;;6.78;27.22
46886;BME280;32622;48.202;11.326;2023-04-15T16:52:03;1013.04;;;6.68;27.21
46886;BME280;32622;48.202;11.326;2023-04-15T16:54:06;1013.01;;;6.75;27.87
46886;BME280;32622;48.202;11.326;2023-04-15T16:56:09;1012.87;;;7.48;27.60
46886;BME280;32622;48.202;11.326;2023-04-15T16:58:12;1013.03;;;7.07;27.76
46886;BME280;32622;48.202;11.326;2023-04-15T17:00:20;1013.20;;;6.33;27.35
46886;BME280;32622;48.202;11.326;2023-04-15T17:02:46;1013.12;;;6.72;27.54
46886;BME280;32622;48.202;11.326;2023-04-15T17:04:50;1013.10;;;6.96;27.47
46886;BME280;32622;48.202;11.326;2023-04-15T17:06:55;1013.33;;;6.09;27.46
46886;BME280;32622;48.202;11.326;2023-04-15T17:08:59;1013.41;;;5.85;27.67
46886;BME280;32622;48.202;11.326;2023-04-15T17:11:04;1013.20;;;6.84;27.19
46886;BME280;32622;48.202;11.326;2023-04-15T17:14:30;1012.83;;;8.72;27.10
46886;BME280;32622;48.202;11.326;2023-04-15T17:19:21;1013.11;;;7.87;28.53
46886;BME280;32622;48.202;11.326;2023-04-15T17:21:25;1013.53;;;6.06;27.98
46886;BME280;32622;48.202;11.326;2023-04-15T17:23:44;1013.54;;;6.26;28.22
46886;BME280;32622;48.202;11.326;2023-04-15T17:25:47;1013.60;;;6.07;27.77
46886;BME280;32622;48.202;11.326;2023-04-15T17:27:50;1013.53;;;6.37;27.59
46886;BME280;32622;48.202;11.326;2023-04-15T17:29:54;1013.58;;;6.27;27.59
46886;BME280;32622;48.202;11.326;2023-04-15T17:31:58;1013.54;;;6.60;27.49
46886;BME280;32622;48.202;11.326;2023-04-15T17:34:02;1013.70;;;6.04;27.81
46886;BME280;32622;48.202;11.326;2023-04-15T17:36:05;1013.57;;;6.59;27.37
46886;BME280;32622;48.202;11.326;2023-04-15T17:38:08;1013.67;;;6.36;28.10
46886;BME280;32622;48.202;11.326;2023-04-15T17:40:11;1013.69;;;6.33;27.61
46886;BME280;32622;48.202;11.326;2023-04-15T17:42:14;1013.64;;;6.67;27.71
46886;BME280;32622;48.202;11.326;2023-04-15T17:44:16;1013.64;;;6.77;27.70
46886;BME280;32622;48.202;11.326;2023-04-15T17:46:19;1013.54;;;7.14;27.41
46886;BME280;32622;48.202;11.326;2023-04-15T17:48:22;1013.46;;;7.42;27.31
46886;BME280;32622;48.202;11.326;2023-04-15T17:50:25;1013.52;;;7.28;27.27
46886;BME280;32622;48.202;11.326;2023-04-15T17:52:27;1013.60;;;6.95;27.45
46886;BME280;32622;48.202;11.326;2023-04-15T17:54:30;1013.72;;;6.60;27.45
46886;BME280;32622;48.202;11.326;2023-04-15T17:56:33;1013.81;;;6.49;28.02
46886;BME280;32622;48.202;11.326;2023-04-15T17:58:36;1013.91;;;6.13;28.16
46886;BME280;32622;48.202;11.326;2023-04-15T18:00:39;1013.73;;;7.11;27.79
46886;BME280;32622;48.202;11.326;2023-04-15T18:02:42;1013.94;;;6.40;28.22
46886;BME280;32622;48.202;11.326;2023-04-15T18:04:46;1013.92;;;6.71;27.84
46886;BME280;32622;48.202;11.326;2023-04-15T18:06:51;1013.97;;;6.49;27.52
46886;BME280;32622;48.202;11.326;2023-04-15T18:08:56;1013.86;;;7.06;27.29
46886;BME280;32622;48.202;11.326;2023-04-15T18:10:59;1013.71;;;7.78;26.77
46886;BME280;32622;48.202;11.326;2023-04-15T18:13:02;1013.66;;;8.13;26.76
46886;BME280;32622;48.202;11.326;2023-04-15T18:15:06;1013.84;;;7.55;26.81
46886;BME280;32622;48.202;11.326;2023-04-15T18:17:10;1013.82;;;7.90;26.72
46886;BME280;32622;48.202;11.326;2023-04-15T18:21:52;1014.06;;;7.14;27.30
46886;BME280;32622;48.202;11.326;2023-04-15T18:23:55;1014.12;;;7.02;27.78
46886;BME280;32622;48.202;11.326;2023-04-15T18:25:58;1013.98;;;7.76;27.48
46886;BME280;32622;48.202;11.326;2023-04-15T18:28:03;1014.08;;;7.52;27.50
46886;BME280;32622;48.202;11.326;2023-04-15T18:30:08;1014.05;;;7.81;26.95
46886;BME280;32622;48.202;11.326;2023-04-15T18:32:12;1014.08;;;7.80;27.16
46886;BME280;32622;48.202;11.326;2023-04-15T18:34:15;1014.04;;;7.94;26.95
46886;BME280;32622;48.202;11.326;2023-04-15T18:38:20;1014.19;;;7.87;28.43
46886;BME280;32622;48.202;11.326;2023-04-15T18:40:24;1014.24;;;7.65;28.01
46886;BME280;32622;48.202;11.326;2023-04-15T18:42:27;1014.19;;;7.86;27.97
46886;BME280;32622;48.202;11.326;2023-04-15T18:44:30;1014.38;;;7.27;28.48
46886;BME280;32622;48.202;11.326;2023-04-15T18:46:34;1014.55;;;6.70;28.30
46886;BME280;32622;48.202;11.326;2023-04-15T18:48:37;1014.24;;;8.24;27.82
46886;BME280;32622;48.202;11.326;2023-04-15T18:50:42;1014.29;;;8.15;27.87
46886;BME280;32622;48.202;11.326;2023-04-15T18:52:45;1014.32;;;8.09;27.45
46886;BME280;32622;48.202;11.326;2023-04-15T18:54:48;1014.34;;;8.26;27.53
46886;BME280;32622;48.202;11.326;2023-04-15T18:56:53;1014.32;;;8.44;27.56
46886;BME280;32622;48.202;11.326;2023-04-15T18:58:57;1014.47;;;8.03;27.71
46886;BME280;32622;48.202;11.326;2023-04-15T19:01:01;1014.46;;;8.12;27.72
46886;BME280;32622;48.202;11.326;2023-04-15T19:03:04;1014.46;;;8.23;27.55
46886;BME280;32622;48.202;11.326;2023-04-15T19:05:08;1014.62;;;7.70;27.95
46886;BME280;32622;48.202;11.326;2023-04-15T19:07:11;1014.54;;;8.14;28.02
46886;BME280;32622;48.202;11.326;2023-04-15T19:09:15;1014.55;;;8.10;27.86
46886;BME280;32622;48.202;11.326;2023-04-15T19:11:18;1014.56;;;8.12;28.11
46886;BME280;32622;48.202;11.326;2023-04-15T19:13:22;1014.44;;;8.65;27.50
46886;BME280;32622;48.202;11.326;2023-04-15T19:15:25;1014.59;;;8.16;27.65
46886;BME280;32622;48.202;11.326;2023-04-15T19:17:28;1014.52;;;8.64;27.71
46886;BME280;32622;48.202;11.326;2023-04-15T19:19:31;1014.68;;;8.17;27.94
46886;BME280;32622;48.202;11.326;2023-04-15T19:21:34;1014.53;;;8.72;27.56
46886;BME280;32622;48.202;11.326;2023-04-15T19:23:37;1014.77;;;7.99;28.00
46886;BME280;32622;48.202;11.326;2023-04-15T19:25:41;1015.05;;;6.89;28.91
46886;BME280;32622;48.202;11.326;2023-04-15T19:27:44;1014.69;;;8.53;28.24
46886;BME280;32622;48.202;11.326;2023-04-15T19:29:47;1014.81;;;8.04;28.03
46886;BME280;32622;48.202;11.326;2023-04-15T19:31:52;1014.93;;;7.61;28.65
46886;BME280;32622;48.202;11.326;2023-04-15T19:33:55;1014.84;;;8.18;28.47
46886;BME280;32622;48.202;11.326;2023-04-15T19:36:00;1014.93;;;7.80;28.75
46886;BME280;32622;48.202;11.326;2023-04-15T19:38:04;1014.98;;;7.59;28.76
46886;BME280;32622;48.202;11.326;2023-04-15T19:40:08;1014.87;;;8.08;28.35
46886;BME280;32622;48.202;11.326;2023-04-15T19:42:11;1014.90;;;7.98;28.41
46886;BME280;32622;48.202;11.326;2023-04-15T19:44:14;1014.82;;;8.46;28.43
46886;BME280;32622;48.202;11.326;2023-04-15T19:46:19;1015.04;;;7.55;28.60
46886;BME280;32622;48.202;11.326;2023-04-15T19:48:24;1014.99;;;8.05;28.67
46886;BME280;32622;48.202;11.326;2023-04-15T19:50:27;1014.89;;;8.43;28.36
46886;BME280;32622;48.202;11.326;2023-04-15T19:52:30;1015.10;;;7.60;29.23
46886;BME280;32622;48.202;11.326;2023-04-15T19:54:34;1015.12;;;7.45;29.41
46886;BME280;32622;48.202;11.326;2023-04-15T19:56:37;1015.06;;;7.97;29.11
46886;BME280;32622;48.202;11.326;2023-04-15T19:58:40;1015.48;;;6.40;30.62
46886;BME280;32622;48.202;11.326;2023-04-15T20:00:45;1015.40;;;6.56;30.27
46886;BME280;32622;48.202;11.326;2023-04-15T20:02:48;1015.52;;;6.37;30.75
46886;BME280;32622;48.202;11.326;2023-04-15T20:04:52;1015.60;;;6.26;31.24
46886;BME280;32622;48.202;11.326;2023-04-15T20:06:55;1015.60;;;6.38;31.12
46886;BME280;32622;48.202;11.326;2023-04-15T20:08:59;1015.63;;;6.46;31.29
46886;BME280;32622;48.202;11.326;2023-04-15T20:11:03;1015.69;;;6.25;31.61
46886;BME280;32622;48.202;11.326;2023-04-15T20:13:07;1015.82;;;5.69;32.25
46886;BME280;32622;48.202;11.326;2023-04-15T20:15:12;1015.86;;;5.58;32.06
46886;BME280;32622;48.202;11.326;2023-04-15T20:17:15;1015.84;;;5.77;32.35
46886;BME280;32622;48.202;11.326;2023-04-15T20:19:19;1015.77;;;6.20;32.40
46886;BME280;32622;48.202;11.326;2023-04-15T20:21:22;1016.03;;;5.08;32.97
46886;BME280;32622;48.202;11.326;2023-04-15T20:23:25;1015.77;;;6.41;31.77
46886;BME280;32622;48.202;11.326;2023-04-15T20:25:28;1016.04;;;5.36;32.74
46886;BME280;32622;48.202;11.326;2023-04-15T20:27:32;1016.03;;;5.54;32.47
46886;BME280;32622;48.202;11.326;2023-04-15T20:29:38;1015.84;;;6.30;32.17
46886;BME280;32622;48.202;11.326;2023-04-15T20:31:41;1016.04;;;5.62;32.23
46886;BME280;32622;48.202;11.326;2023-04-15T20:33:45;1015.86;;;6.44;31.84
46886;BME280;32622;48.202;11.326;2023-04-15T20:35:48;1015.96;;;6.12;31.61
46886;BME280;32622;48.202;11.326;2023-04-15T20:37:52;1015.85;;;6.79;31.23
46886;BME280;32622;48.202;11.326;2023-04-15T20:39:57;1015.75;;;6.92;30.87
46886;BME280;32622;48.202;11.326;2023-04-15T20:42:03;1015.75;;;7.15;30.90
46886;BME280;32622;48.202;11.326;2023-04-15T20:44:08;1015.69;;;7.35;30.95
46886;BME280;32622;48.202;11.326;2023-04-15T20:46:21;1015.77;;;6.87;30.72
46886;BME280;32622;48.202;11.326;2023-04-15T20:48:24;1015.97;;;6.24;31.35
46886;BME280;32622;48.202;11.326;2023-04-15T20:50:27;1015.84;;;6.65;31.08
46886;BME280;32622;48.202;11.326;2023-04-15T20:52:35;1015.95;;;6.44;31.30
46886;BME280;32622;48.202;11.326;2023-04-15T20:54:39;1015.90;;;6.74;31.32
46886;BME280;32622;48.202;11.326;2023-04-15T20:56:43;1015.85;;;6.87;30.93
46886;BME280;32622;48.202;11.326;2023-04-15T20:58:49;1016.00;;;6.38;31.46
46886;BME280;32622;48.202;11.326;2023-04-15T21:00:53;1015.91;;;6.77;30.89
46886;BME280;32622;48.202;11.326;2023-04-15T21:02:57;1016.14;;;5.95;31.55
46886;BME280;32622;48.202;11.326;2023-04-15T21:05:01;1016.14;;;5.92;31.55
46886;BME280;32622;48.202;11.326;2023-04-15T21:07:06;1016.28;;;5.43;32.41
46886;BME280;32622;48.202;11.326;2023-04-15T21:09:10;1016.07;;;6.48;31.41
46886;BME280;32622;48.202;11.326;2023-04-15T21:11:13;1016.03;;;6.82;31.25
46886;BME280;32622;48.202;11.326;2023-04-15T21:13:16;1016.27;;;5.76;32.02
46886;BME280;32622;48.202;11.326;2023-04-15T21:15:20;1016.06;;;6.80;31.37
46886;BME280;32622;48.202;11.326;2023-04-15T21:17:23;1016.18;;;6.32;31.15
46886;BME280;32622;48.202;11.326;2023-04-15T21:19:28;1016.28;;;5.91;31.27
46886;BME280;32622;48.202;11.326;2023-04-15T21:21:31;1016.27;;;6.08;31.26
46886;BME280;32622;48.202;11.326;2023-04-15T21:23:35;1016.13;;;6.60;30.76
46886;BME280;32622;48.202;11.326;2023-04-15T21:25:38;1016.04;;;7.11;30.62
46886;BME280;32622;48.202;11.326;2023-04-15T21:27:41;1016.24;;;6.31;31.18
46886;BME280;32622;48.202;11.326;2023-04-15T21:29:46;1016.38;;;5.86;31.88
46886;BME280;32622;48.202;11.326;2023-04-15T21:31:52;1016.40;;;6.06;31.32
46886;BME280;32622;48.202;11.326;2023-04-15T21:33:55;1016.53;;;5.61;32.34
46886;BME280;32622;48.202;11.326;2023-04-15T21:35:58;1016.54;;;5.67;31.84
46886;BME280;32622;48.202;11.326;2023-04-15T21:38:02;1016.56;;;5.70;31.77
46886;BME280;32622;48.202;11.326;2023-04-15T21:40:06;1016.60;;;5.59;31.81
46886;BME280;32622;48.202;11.326;2023-04-15T21:42:11;1016.61;;;5.37;31.70
46886;BME280;32622;48.202;11.326;2023-04-15T21:44:15;1016.57;;;5.72;31.46
46886;BME280;32622;48.202;11.326;2023-04-15T21:46:19;1016.65;;;5.57;32.37
46886;BME280;32622;48.202;11.326;2023-04-15T21:48:24;1016.75;;;5.20;32.18
46886;BME280;32622;48.202;11.326;2023-04-15T21:50:28;1016.68;;;5.66;31.86
46886;BME280;32622;48.202;11.326;2023-04-15T21:52:33;1016.66;;;5.67;32.34
46886;BME280;32622;48.202;11.326;2023-04-15T21:54:36;1016.59;;;6.20;31.79
46886;BME280;32622;48.202;11.326;2023-04-15T21:56:40;1016.75;;;5.48;31.82
46886;BME280;32622;48.202;11.326;2023-04-15T21:58:43;1016.62;;;6.16;31.39
46886;BME280;32622;48.202;11.326;2023-04-15T22:00:47;1016.83;;;5.40;32.06
46886;BME280;32622;48.202;11.326;2023-04-15T22:02:51;1017.01;;;4.75;32.94
46886;BME280;32622;48.202;11.326;2023-04-15T22:04:54;1016.93;;;5.16;32.73
46886;BME280;32622;48.202;11.326;2023-04-15T22:06:57;1016.88;;;5.35;32.90
46886;BME280;32622;48.202;11.326;2023-04-15T22:09:01;1016.91;;;5.39;32.85
46886;BME280;32622;48.202;11.326;2023-04-15T22:11:04;1016.91;;;5.33;32.32
46886;BME280;32622;48.202;11.326;2023-04-15T22:13:10;1016.87;;;5.69;31.79
46886;BME280;32622;48.202;11.326;2023-04-15T22:15:15;1017.07;;;5.13;32.46
46886;BME280;32622;48.202;11.326;2023-04-15T22:17:19;1017.12;;;5.06;32.84
46886;BME280;32622;48.202;11.326;2023-04-15T22:19:22;1017.10;;;5.23;32.84
46886;BME280;32622;48.202;11.326;2023-04-15T22:21:25;1016.89;;;6.19;31.78
46886;BME280;32622;48.202;11.326;2023-04-15T22:23:30;1016.97;;;5.84;31.87
46886;BME280;32622;48.202;11.326;2023-04-15T22:25:35;1017.35;;;4.45;32.87
46886;BME280;32622;48.202;11.326;2023-04-15T22:27:39;1017.09;;;5.59;31.59
46886;BME280;32622;48.202;11.326;2023-04-15T22:29:42;1017.20;;;5.28;32.02
46886;BME280;32622;48.202;11.326;2023-04-15T22:31:45;1017.16;;;5.46;31.85
46886;BME280;32622;48.202;11.326;2023-04-15T22:33:48;1017.13;;;5.70;31.43
46886;BME280;32622;48.202;11.326;2023-04-15T22:35:52;1017.06;;;6.25;30.96
46886;BME280;32622;48.202;11.326;2023-04-15T22:37:56;1017.06;;;6.45;30.51
46886;BME280;32622;48.202;11.326;2023-04-15T22:39:59;1017.11;;;6.38;30.54
46886;BME280;32622;48.202;11.326;2023-04-15T22:42:02;1017.18;;;6.13;30.83
46886;BME280;32622;48.202;11.326;2023-04-15T22:44:06;1017.12;;;6.34;30.53
46886;BME280;32622;48.202;11.326;2023-04-15T22:46:09;1017.18;;;6.13;30.95
46886;BME280;32622;48.202;11.326;2023-04-15T22:48:13;1017.16;;;6.08;31.04
46886;BME280;32622;48.202;11.326;2023-04-15T22:50:16;1017.07;;;6.37;31.00
46886;BME280;32622;48.202;11.326;2023-04-15T22:52:20;1017.19;;;5.90;30.91
46886;BME280;32622;48.202;11.326;2023-04-15T22:54:23;1017.20;;;5.80;31.28
46886;BME280;32622;48.202;11.326;2023-04-15T22:56:26;1017.43;;;4.94;32.05
46886;BME280;32622;48.202;11.326;2023-04-15T22:58:30;1017.54;;;4.71;33.00
46886;BME280;32622;48.202;11.326;2023-04-15T23:00:33;1017.37;;;5.40;33.35
46886;BME280;32622;48.202;11.326;2023-04-15T23:02:36;1017.30;;;5.59;32.34
46886;BME280;32622;48.202;11.326;2023-04-15T23:04:40;1017.28;;;5.66;32.09
46886;BME280;32622;48.202;11.326;2023-04-15T23:06:43;1017.26;;;5.72;32.05
46886;BME280;32622;48.202;11.326;2023-04-15T23:08:46;1017.29;;;5.79;32.22
46886;BME280;32622;48.202;11.326;2023-04-15T23:10:49;1017.23;;;5.83;31.77
46886;BME280;32622;48.202;11.326;2023-04-15T23:12:53;1017.24;;;5.92;31.10
46886;BME280;32622;48.202;11.326;2023-04-15T23:14:56;1017.21;;;5.95;31.46
46886;BME280;32622;48.202;11.326;2023-04-15T23:16:59;1017.34;;;5.60;31.75
46886;BME280;32622;48.202;11.326;2023-04-15T23:19:03;1017.43;;;5.34;31.75
46886;BME280;32622;48.202;11.326;2023-04-15T23:21:06;1017.45;;;5.39;31.58
46886;BME280;32622;48.202;11.326;2023-04-15T23:23:09;1017.36;;;5.79;31.88
46886;BME280;32622;48.202;11.326;2023-04-15T23:25:13;1017.41;;;5.54;31.71
46886;BME280;32622;48.202;11.326;2023-04-15T23:27:16;1017.24;;;6.27;31.21
46886;BME280;32622;48.202;11.326;2023-04-15T23:29:19;1017.24;;;6.20;31.16
46886;BME280;32622;48.202;11.326;2023-04-15T23:31:23;1017.31;;;6.17;30.79
46886;BME280;32622;48.202;11.326;2023-04-15T23:33:26;1017.26;;;6.53;30.68
46886;BME280;32622;48.202;11.326;2023-04-15T23:35:29;1017.24;;;6.61;30.31
46886;BME280;32622;48.202;11.326;2023-04-15T23:37:33;1017.15;;;6.98;30.03
46886;BME280;32622;48.202;11.326;2023-04-15T23:39:37;1017.09;;;7.16;29.75
46886;BME280;32622;48.202;11.326;2023-04-15T23:41:41;1017.24;;;6.61;30.21
46886;BME280;32622;48.202;11.326;2023-04-15T23:43:44;1017.26;;;6.58;30.11
46886;BME280;32622;48.202;11.326;2023-04-15T23:45:48;1017.16;;;7.05;29.91
46886;BME280;32622;48.202;11.326;2023-04-15T23:47:51;1017.29;;;6.58;29.89
46886;BME280;32622;48.202;11.326;2023-04-15T23:49:55;1017.23;;;6.75;29.95
46886;BME280;32622;48.202;11.326;2023-04-15T23:51:58;1017.14;;;7.28;29.45
46886;BME280;32622;48.202;11.326;2023-04-15T23:54:02;1017.16;;;7.15;29.33
46886;BME280;32622;48.202;11.326;2023-04-15T23:56:06;1017.12;;;7.38;29.47
46886;BME280;32622;48.202;11.326;2023-04-15T23:58:10;1017.09;;;7.52;29.37
